createdAt,value
2023-02-28T00:01:22.524Z,51.08
2023-02-28T00:03:51.610Z,50.81
2023-02-28T00:06:19.480Z,50.42
2023-02-28T00:08:47.364Z,50.51
2023-02-28T00:11:15.773Z,50.39
2023-02-28T00:13:47.153Z,49.69
2023-02-28T00:16:15.969Z,49.40
2023-02-28T00:18:43.851Z,49.84
2023-02-28T00:21:12.936Z,49.06
2023-02-28T00:23:40.723Z,49.07
2023-02-28T00:26:08.399Z,49.06
2023-02-28T00:28:36.079Z,48.70
2023-02-28T00:31:03.835Z,49.12
2023-02-28T00:33:31.531Z,49.09
2023-02-28T00:36:06.489Z,49.03
2023-02-28T00:38:35.573Z,49.51
2023-02-28T00:41:05.752Z,48.82
2023-02-28T00:43:34.696Z,48.96
2023-02-28T00:46:02.546Z,49.17
2023-02-28T00:48:30.279Z,49.29
2023-02-28T00:50:57.948Z,49.36
2023-02-28T00:53:25.639Z,49.07
2023-02-28T00:55:54.661Z,49.37
2023-02-28T00:58:22.700Z,48.87
2023-02-28T01:00:50.626Z,49.17
2023-02-28T01:03:18.742Z,49.06
2023-02-28T01:05:46.733Z,49.28
2023-02-28T01:08:14.594Z,49.15
2023-02-28T01:10:42.381Z,49.45
2023-02-28T01:13:11.442Z,49.12
2023-02-28T01:15:39.253Z,49.45
2023-02-28T01:18:06.949Z,49.12
2023-02-28T01:20:35.009Z,50.04
2023-02-28T01:23:02.690Z,50.39
2023-02-28T01:25:30.412Z,50.19
2023-02-28T01:27:58.562Z,49.86
2023-02-28T01:30:27.599Z,49.49
2023-02-28T01:32:55.282Z,49.10
2023-02-28T01:35:22.992Z,49.13
2023-02-28T01:37:50.665Z,49.14
2023-02-28T01:40:18.354Z,49.46
2023-02-28T01:42:46.028Z,49.08
2023-02-28T01:45:23.304Z,49.06
2023-02-28T01:47:52.974Z,49.13
2023-02-28T01:50:22.665Z,48.99
2023-02-28T01:52:50.587Z,49.33
2023-02-28T01:55:18.984Z,49.63
2023-02-28T01:57:48.370Z,49.34
2023-02-28T02:00:17.059Z,49.54
2023-02-28T02:02:45.261Z,49.37
2023-02-28T02:05:16.116Z,49.47
2023-02-28T02:07:44.968Z,49.26
2023-02-28T02:10:15.868Z,49.33
2023-02-28T02:13:12.496Z,49.59
2023-02-28T02:15:42.831Z,49.15
2023-02-28T02:18:14.161Z,49.39
2023-02-28T02:20:59.041Z,49.70
2023-02-28T02:23:42.192Z,49.46
2023-02-28T02:26:40.179Z,50.95
2023-02-28T02:29:38.270Z,49.91
2023-02-28T02:32:44.256Z,49.97
2023-02-28T02:35:15.799Z,49.52
2023-02-28T02:37:45.283Z,49.88
2023-02-28T02:40:15.348Z,49.57
2023-02-28T02:42:46.308Z,49.49
2023-02-28T02:45:14.919Z,49.90
2023-02-28T02:47:42.588Z,49.74
2023-02-28T02:50:13.288Z,49.61
2023-02-28T02:52:44.335Z,49.76
2023-02-28T02:55:13.399Z,49.58
2023-02-28T02:57:43.886Z,49.97
2023-02-28T03:00:12.893Z,49.92
2023-02-28T03:02:40.647Z,49.99
2023-02-28T03:05:10.600Z,49.56
2023-02-28T03:07:38.290Z,49.97
2023-02-28T03:10:35.511Z,49.70
2023-02-28T03:13:13.487Z,50.12
2023-02-28T03:15:45.668Z,49.81
2023-02-28T03:18:16.054Z,49.74
2023-02-28T03:20:47.687Z,50.04
2023-02-28T03:23:17.332Z,49.95
2023-02-28T03:25:53.802Z,50.04
2023-02-28T03:28:24.280Z,50.05
2023-02-28T03:30:54.697Z,49.86
2023-02-28T03:33:24.127Z,50.33
2023-02-28T03:35:53.703Z,50.24
2023-02-28T03:38:24.352Z,50.57
2023-02-28T03:41:06.756Z,50.21
2023-02-28T03:43:36.937Z,50.43
2023-02-28T03:46:07.012Z,50.24
2023-02-28T03:48:37.238Z,50.73
2023-02-28T03:51:05.264Z,50.31
2023-02-28T03:53:34.345Z,50.05
2023-02-28T03:56:05.656Z,50.56
2023-02-28T03:58:35.383Z,50.81
2023-02-28T04:01:08.793Z,50.79
2023-02-28T04:03:37.500Z,50.68
2023-02-28T04:06:05.558Z,50.94
2023-02-28T04:08:33.240Z,50.97
2023-02-28T04:11:05.558Z,50.45
2023-02-28T04:13:33.329Z,51.16
2023-02-28T04:16:01.086Z,50.74
2023-02-28T04:18:28.745Z,51.31
2023-02-28T04:20:56.456Z,50.81
2023-02-28T04:23:24.178Z,51.12
2023-02-28T04:25:52.231Z,51.12
2023-02-28T04:28:21.286Z,50.86
2023-02-28T04:30:48.988Z,51.08
2023-02-28T04:33:16.652Z,51.42
2023-02-28T04:35:44.329Z,51.08
2023-02-28T04:38:12.040Z,51.45
2023-02-28T04:40:39.690Z,50.88
2023-02-28T04:43:07.350Z,50.88
2023-02-28T04:45:36.940Z,51.17
2023-02-28T04:48:04.751Z,51.22
2023-02-28T04:50:32.447Z,51.68
2023-02-28T04:53:00.150Z,51.50
2023-02-28T04:55:27.825Z,51.26
2023-02-28T04:57:55.491Z,51.42
2023-02-28T05:00:23.512Z,50.93
2023-02-28T05:02:52.527Z,51.28
2023-02-28T05:05:20.450Z,51.52
2023-02-28T05:07:48.127Z,51.00
2023-02-28T05:10:15.979Z,51.31
2023-02-28T05:12:43.731Z,51.51
2023-02-28T05:15:12.927Z,51.35
2023-02-28T05:17:40.586Z,51.70
2023-02-28T05:20:15.695Z,52.40
2023-02-28T05:22:44.185Z,53.26
2023-02-28T05:25:15.146Z,52.38
2023-02-28T05:27:42.892Z,52.35
2023-02-28T05:30:12.238Z,52.16
2023-02-28T05:32:40.154Z,52.51
2023-02-28T05:35:09.913Z,52.06
2023-02-28T05:37:37.584Z,52.34
2023-02-28T05:40:07.884Z,52.20
2023-02-28T05:42:35.579Z,52.27
2023-02-28T05:45:03.257Z,51.97
2023-02-28T05:47:30.926Z,52.12
2023-02-28T05:49:58.682Z,51.78
2023-02-28T05:52:27.811Z,51.81
2023-02-28T05:54:55.520Z,51.69
2023-02-28T05:57:24.858Z,52.01
2023-02-28T05:59:52.679Z,51.61
2023-02-28T06:02:20.401Z,51.34
2023-02-28T06:04:48.144Z,51.64
2023-02-28T06:07:16.275Z,51.70
2023-02-28T06:09:45.341Z,51.34
2023-02-28T06:12:13.014Z,51.51
2023-02-28T06:14:40.700Z,51.35
2023-02-28T06:17:08.394Z,51.43
2023-02-28T06:19:37.855Z,51.12
2023-02-28T06:22:05.582Z,51.42
2023-02-28T06:24:33.347Z,51.28
2023-02-28T06:27:05.870Z,50.81
2023-02-28T06:29:33.655Z,51.10
2023-02-28T06:32:01.411Z,51.86
2023-02-28T06:34:29.141Z,51.87
2023-02-28T06:36:56.787Z,51.87
2023-02-28T06:39:24.803Z,51.72
2023-02-28T06:41:56.146Z,51.63
2023-02-28T06:44:25.831Z,51.73
2023-02-28T06:46:53.797Z,51.68
2023-02-28T06:49:21.515Z,52.20
2023-02-28T06:51:49.508Z,52.35
2023-02-28T06:54:17.231Z,52.37
2023-02-28T06:56:45.083Z,52.48
2023-02-28T06:59:12.844Z,52.89
2023-02-28T07:01:42.014Z,52.59
2023-02-28T07:04:09.847Z,52.54
2023-02-28T07:06:37.660Z,52.38
2023-02-28T07:09:06.037Z,52.21
2023-02-28T07:11:33.737Z,52.55
2023-02-28T07:14:01.524Z,52.28
2023-02-28T07:16:29.387Z,52.33
2023-02-28T07:18:58.667Z,51.82
2023-02-28T07:21:26.377Z,51.51
2023-02-28T07:23:54.072Z,52.13
2023-02-28T07:26:22.324Z,51.42
2023-02-28T07:28:50.805Z,51.63
2023-02-28T07:31:19.433Z,51.69
2023-02-28T07:33:47.232Z,51.81
2023-02-28T07:36:19.038Z,51.51
2023-02-28T07:38:48.986Z,51.06
2023-02-28T07:41:17.445Z,51.29
2023-02-28T07:43:45.223Z,50.79
2023-02-28T07:46:13.694Z,51.20
2023-02-28T07:48:41.377Z,50.62
2023-02-28T07:51:09.133Z,51.16
2023-02-28T07:53:38.285Z,51.13
2023-02-28T07:56:06.769Z,51.00
2023-02-28T07:58:34.452Z,50.90
2023-02-28T08:01:07.168Z,50.85
2023-02-28T08:03:34.891Z,50.53
2023-02-28T08:06:03.378Z,50.67
2023-02-28T08:08:32.234Z,50.74
2023-02-28T08:11:02.411Z,50.69
2023-02-28T08:13:30.351Z,50.61
2023-02-28T08:15:58.167Z,50.75
2023-02-28T08:18:25.960Z,50.23
2023-02-28T08:20:53.652Z,50.43
2023-02-28T08:23:21.333Z,50.07
2023-02-28T08:25:55.146Z,49.85
2023-02-28T08:28:26.730Z,50.24
2023-02-28T08:30:54.883Z,50.00
2023-02-28T08:33:22.638Z,49.53
2023-02-28T08:35:50.338Z,49.71
2023-02-28T08:38:18.060Z,50.04
2023-02-28T08:40:45.723Z,50.10
2023-02-28T08:43:13.441Z,49.60
2023-02-28T08:45:42.529Z,49.54
2023-02-28T08:48:10.226Z,49.64
2023-02-28T08:50:37.902Z,49.56
2023-02-28T08:53:05.626Z,49.42
2023-02-28T08:55:33.307Z,49.73
2023-02-28T08:58:02.098Z,50.02
2023-02-28T09:00:30.080Z,49.83
2023-02-28T09:02:59.119Z,49.91
2023-02-28T09:05:26.854Z,49.74
2023-02-28T09:07:54.524Z,49.38
2023-02-28T09:10:22.319Z,49.25
2023-02-28T09:12:49.972Z,49.51
2023-02-28T09:15:17.704Z,49.34
2023-02-28T09:17:47.029Z,49.35
2023-02-28T09:20:17.308Z,49.54
2023-02-28T09:22:45.028Z,49.49
2023-02-28T09:25:12.732Z,49.66
2023-02-28T09:27:42.285Z,48.96
2023-02-28T09:30:11.096Z,49.14
2023-02-28T09:32:38.810Z,48.94
2023-02-28T09:35:07.481Z,48.95
2023-02-28T09:37:36.536Z,48.98
2023-02-28T09:40:05.296Z,49.04
2023-02-28T09:42:33.906Z,49.36
2023-02-28T09:45:02.039Z,48.72
2023-02-28T09:47:32.102Z,49.13
2023-02-28T09:50:00.455Z,48.92
2023-02-28T09:52:30.062Z,48.87
2023-02-28T09:55:01.378Z,48.91
2023-02-28T09:57:33.967Z,48.52
2023-02-28T10:00:10.821Z,48.78
2023-02-28T10:02:48.602Z,48.51
2023-02-28T10:05:16.793Z,48.92
2023-02-28T10:07:56.092Z,48.88
2023-02-28T10:10:26.372Z,48.63
2023-02-28T10:12:55.032Z,48.36
2023-02-28T10:15:23.879Z,48.28
2023-02-28T10:17:55.797Z,48.69
2023-02-28T10:20:34.889Z,48.42
2023-02-28T10:23:08.436Z,48.43
2023-02-28T10:25:38.454Z,48.57
2023-02-28T10:28:11.841Z,48.20
2023-02-28T10:30:40.603Z,48.68
2023-02-28T10:33:10.604Z,48.53
2023-02-28T10:35:38.328Z,48.21
2023-02-28T10:38:10.858Z,48.11
2023-02-28T10:40:39.937Z,48.60
2023-02-28T10:43:09.733Z,48.57
2023-02-28T10:45:38.203Z,48.22
2023-02-28T10:48:07.546Z,48.27
2023-02-28T10:50:39.059Z,48.15
2023-02-28T10:53:12.272Z,48.14
2023-02-28T10:55:41.427Z,47.91
2023-02-28T10:58:22.523Z,48.08
2023-02-28T11:00:50.230Z,48.23
2023-02-28T11:03:25.969Z,48.37
2023-02-28T11:05:53.646Z,48.01
2023-02-28T11:08:21.440Z,48.39
2023-02-28T11:10:56.382Z,47.81
2023-02-28T11:13:28.078Z,47.71
2023-02-28T11:15:56.685Z,47.69
2023-02-28T11:18:26.521Z,47.80
2023-02-28T11:20:55.089Z,47.72
2023-02-28T11:23:22.780Z,47.13
2023-02-28T11:25:54.551Z,47.56
2023-02-28T11:28:27.625Z,47.32
2023-02-28T11:31:02.926Z,47.31
2023-02-28T11:33:31.310Z,47.45
2023-02-28T11:36:00.887Z,47.52
2023-02-28T11:38:28.793Z,47.54
2023-02-28T11:41:05.440Z,47.62
2023-02-28T11:43:40.549Z,47.89
2023-02-28T11:46:15.229Z,48.43
2023-02-28T11:48:47.112Z,48.48
2023-02-28T11:51:17.795Z,48.25
2023-02-28T11:54:07.109Z,48.09
2023-02-28T11:56:38.464Z,47.95
2023-02-28T11:59:28.286Z,48.10
2023-02-28T12:02:06.330Z,47.98
2023-02-28T12:04:39.772Z,47.89
2023-02-28T12:07:11.632Z,48.25
2023-02-28T12:09:45.605Z,48.00
2023-02-28T12:12:23.805Z,48.02
2023-02-28T12:14:58.751Z,47.97
2023-02-28T12:17:35.229Z,47.95
2023-02-28T12:20:09.948Z,47.79
2023-02-28T12:22:39.747Z,47.97
2023-02-28T12:25:23.425Z,47.88
2023-02-28T12:27:53.970Z,47.92
2023-02-28T12:30:23.610Z,47.41
2023-02-28T12:32:51.934Z,47.60
2023-02-28T12:35:21.306Z,47.78
2023-02-28T12:37:51.809Z,47.61
2023-02-28T12:40:21.227Z,47.55
2023-02-28T12:42:50.816Z,47.66
2023-02-28T12:45:21.840Z,47.37
2023-02-28T12:47:53.045Z,47.46
2023-02-28T12:50:20.963Z,47.61
2023-02-28T12:52:53.446Z,47.31
2023-02-28T12:55:24.830Z,47.30
2023-02-28T12:57:55.473Z,47.44
2023-02-28T13:00:25.142Z,47.24
2023-02-28T13:03:03.803Z,47.37
2023-02-28T13:06:01.999Z,47.19
2023-02-28T13:08:43.473Z,47.14
2023-02-28T13:11:24.818Z,47.20
2023-02-28T13:13:59.417Z,46.89
2023-02-28T13:16:28.530Z,47.11
2023-02-28T13:19:10.256Z,47.16
2023-02-28T13:21:44.897Z,46.91
2023-02-28T13:24:12.819Z,47.20
2023-02-28T13:27:26.258Z,47.05
2023-02-28T13:29:54.252Z,47.28
2023-02-28T13:32:39.678Z,47.20
2023-02-28T13:35:17.916Z,47.18
2023-02-28T13:37:45.932Z,47.15
2023-02-28T13:40:31.574Z,46.90
2023-02-28T13:42:59.255Z,47.10
2023-02-28T13:45:28.475Z,46.94
2023-02-28T13:48:00.528Z,46.99
2023-02-28T13:50:34.317Z,47.00
2023-02-28T13:53:28.873Z,46.80
2023-02-28T13:56:00.366Z,47.00
2023-02-28T13:58:43.947Z,46.79
2023-02-28T14:01:26.546Z,46.93
2023-02-28T14:04:18.641Z,46.94
2023-02-28T14:06:49.444Z,46.76
2023-02-28T14:09:24.266Z,46.93
2023-02-28T14:11:52.352Z,46.65
2023-02-28T14:14:56.214Z,46.65
2023-02-28T14:17:23.911Z,46.55
2023-02-28T14:19:53.802Z,46.38
2023-02-28T14:22:42.278Z,46.43
2023-02-28T14:25:12.153Z,45.87
2023-02-28T14:27:43.246Z,45.42
2023-02-28T14:30:53.046Z,45.47
2023-02-28T14:33:38.619Z,45.04
2023-02-28T14:36:13.857Z,44.98
2023-02-28T14:38:44.794Z,44.57
2023-02-28T14:41:24.000Z,44.44
2023-02-28T14:43:57.215Z,44.52
2023-02-28T14:46:26.051Z,44.05
2023-02-28T14:48:53.768Z,44.51
2023-02-28T14:51:23.398Z,44.18
2023-02-28T14:53:52.944Z,44.26
2023-02-28T14:56:23.392Z,43.71
2023-02-28T14:58:54.884Z,43.92
2023-02-28T15:01:23.217Z,43.87
2023-02-28T15:03:50.917Z,43.28
2023-02-28T15:06:19.169Z,43.33
2023-02-28T15:08:48.225Z,43.64
2023-02-28T15:11:17.161Z,43.36
2023-02-28T15:13:47.114Z,43.02
2023-02-28T15:16:15.989Z,43.43
2023-02-28T15:18:47.240Z,43.07
2023-02-28T15:21:18.537Z,43.02
2023-02-28T15:23:49.384Z,43.11
2023-02-28T15:26:17.925Z,43.12
2023-02-28T15:28:45.679Z,42.70
2023-02-28T15:31:23.775Z,42.76
2023-02-28T15:33:55.410Z,42.83
2023-02-28T15:36:24.259Z,42.82
2023-02-28T15:38:55.071Z,42.78
2023-02-28T15:41:26.451Z,42.44
2023-02-28T15:44:33.043Z,42.52
2023-02-28T15:47:03.023Z,42.52
2023-02-28T15:49:33.504Z,42.53
2023-02-28T15:52:02.951Z,42.84
2023-02-28T15:54:32.674Z,42.76
2023-02-28T15:57:03.516Z,42.71
2023-02-28T15:59:31.875Z,42.60
2023-02-28T16:02:14.105Z,43.15
2023-02-28T16:04:57.007Z,42.62
2023-02-28T16:07:25.077Z,42.74
2023-02-28T16:09:54.717Z,42.75
2023-02-28T16:12:22.497Z,43.06
2023-02-28T16:14:50.499Z,42.92
2023-02-28T16:17:22.816Z,42.95
2023-02-28T16:19:50.563Z,43.17
2023-02-28T16:22:18.301Z,43.16
2023-02-28T16:24:45.990Z,43.06
2023-02-28T16:27:19.980Z,43.50
2023-02-28T16:29:47.779Z,43.28
2023-02-28T16:32:16.179Z,43.09
2023-02-28T16:34:43.976Z,43.42
2023-02-28T16:37:15.429Z,43.18
2023-02-28T16:39:43.298Z,43.19
2023-02-28T16:44:41.835Z,43.59
2023-02-28T16:47:11.032Z,43.68
2023-02-28T16:49:39.120Z,44.03
2023-02-28T16:52:07.015Z,43.73
2023-02-28T16:54:34.733Z,44.40
2023-02-28T16:57:02.439Z,44.40
2023-02-28T16:59:30.203Z,44.38
2023-02-28T17:01:59.746Z,44.66
2023-02-28T17:04:27.652Z,44.67
2023-02-28T17:06:55.458Z,44.73
2023-02-28T17:09:28.280Z,45.36
2023-02-28T17:11:58.775Z,45.58
2023-02-28T17:14:26.632Z,45.62
2023-02-28T17:16:54.372Z,45.84
2023-02-28T17:19:23.473Z,46.10
2023-02-28T17:21:51.422Z,46.10
2023-02-28T17:24:28.874Z,46.35
2023-02-28T17:26:57.879Z,46.03
2023-02-28T17:29:25.994Z,46.34
2023-02-28T17:31:53.868Z,46.55
2023-02-28T17:34:23.020Z,46.58
2023-02-28T17:36:53.001Z,46.60
2023-02-28T17:39:25.092Z,46.73
2023-02-28T17:41:53.404Z,46.95
2023-02-28T17:44:21.188Z,47.09
2023-02-28T17:46:50.089Z,47.17
2023-02-28T17:49:17.905Z,47.26
2023-02-28T17:51:47.756Z,47.41
2023-02-28T17:54:18.286Z,47.42
2023-02-28T17:56:47.041Z,47.51
2023-02-28T17:59:15.070Z,47.43
2023-02-28T18:01:42.788Z,47.56
2023-02-28T18:04:10.548Z,47.42
2023-02-28T18:06:46.936Z,47.57
2023-02-28T18:09:16.153Z,47.61
2023-02-28T18:11:45.990Z,47.79
2023-02-28T18:14:13.760Z,47.98
2023-02-28T18:16:41.454Z,47.71
2023-02-28T18:19:09.967Z,47.67
2023-02-28T18:21:37.698Z,47.88
2023-02-28T18:24:06.004Z,47.74
2023-02-28T18:26:35.144Z,47.97
2023-02-28T18:29:02.842Z,48.08
2023-02-28T18:31:32.394Z,47.90
2023-02-28T18:34:00.179Z,47.83
2023-02-28T18:36:28.451Z,47.99
2023-02-28T18:38:56.470Z,48.11
2023-02-28T18:41:24.237Z,48.34
2023-02-28T18:43:54.203Z,48.20
2023-02-28T18:46:22.256Z,47.89
2023-02-28T18:48:49.940Z,48.18
2023-02-28T18:51:18.671Z,48.23
2023-02-28T18:53:46.533Z,48.39
2023-02-28T18:56:14.843Z,48.49
2023-02-28T18:58:42.631Z,48.35
2023-02-28T19:01:18.107Z,48.17
2023-02-28T19:03:46.041Z,48.54
2023-02-28T19:06:13.828Z,48.38
2023-02-28T19:08:41.610Z,49.01
2023-02-28T19:11:09.930Z,48.91
2023-02-28T19:13:38.338Z,49.20
2023-02-28T19:16:07.090Z,48.93
2023-02-28T19:18:36.237Z,49.24
2023-02-28T19:21:03.907Z,49.16
2023-02-28T19:23:32.456Z,48.84
2023-02-28T19:26:00.159Z,48.83
2023-02-28T19:28:29.594Z,49.23
2023-02-28T19:30:57.374Z,49.26
2023-02-28T19:33:25.059Z,49.35
2023-02-28T19:35:54.134Z,49.63
2023-02-28T19:38:21.823Z,49.41
2023-02-28T19:40:49.488Z,49.29
2023-02-28T19:43:17.174Z,49.28
2023-02-28T19:45:44.848Z,49.31
2023-02-28T19:48:12.535Z,49.17
2023-02-28T19:50:41.361Z,49.38
2023-02-28T19:53:10.751Z,49.23
2023-02-28T19:55:39.563Z,49.46
2023-02-28T19:58:07.274Z,49.29
2023-02-28T20:00:34.947Z,49.80
2023-02-28T20:03:02.617Z,49.68
2023-02-28T20:05:30.303Z,49.38
2023-02-28T20:07:57.959Z,49.82
2023-02-28T20:10:27.062Z,49.92
2023-02-28T20:12:54.727Z,49.39
2023-02-28T20:15:22.389Z,49.94
2023-02-28T20:17:50.113Z,50.00
2023-02-28T20:20:17.926Z,50.07
2023-02-28T20:22:45.596Z,49.69
2023-02-28T20:25:13.273Z,49.94
2023-02-28T20:27:42.450Z,49.75
2023-02-28T20:30:10.867Z,49.93
2023-02-28T20:32:39.491Z,50.09
2023-02-28T20:35:08.638Z,50.21
2023-02-28T20:37:36.310Z,50.07
2023-02-28T20:40:04.397Z,50.19
2023-02-28T20:42:32.065Z,49.93
2023-02-28T20:45:01.164Z,50.26
2023-02-28T20:47:29.371Z,50.05
2023-02-28T20:49:57.037Z,49.91
2023-02-28T20:52:24.746Z,50.32
2023-02-28T20:54:52.891Z,50.11
2023-02-28T20:57:20.871Z,49.97
2023-02-28T20:59:48.569Z,50.18
2023-02-28T21:02:17.840Z,50.55
2023-02-28T21:04:45.667Z,50.13
2023-02-28T21:07:13.405Z,50.45
2023-02-28T21:09:41.141Z,50.65
2023-02-28T21:12:08.896Z,50.36
2023-02-28T21:14:36.642Z,50.36
2023-02-28T21:17:08.385Z,50.58
2023-02-28T21:19:37.456Z,50.53
2023-02-28T21:22:05.224Z,50.87
2023-02-28T21:24:32.995Z,51.58
2023-02-28T21:27:02.047Z,51.26
2023-02-28T21:29:29.809Z,50.49
2023-02-28T21:31:57.524Z,51.11
2023-02-28T21:34:26.874Z,51.31
2023-02-28T21:36:56.864Z,51.51
2023-02-28T21:39:29.997Z,51.33
2023-02-28T21:42:03.409Z,51.12
2023-02-28T21:44:31.551Z,51.49
2023-02-28T21:47:01.899Z,50.97
2023-02-28T21:49:29.899Z,50.79
2023-02-28T21:51:59.485Z,50.85
2023-02-28T21:54:27.294Z,51.09
2023-02-28T21:56:55.976Z,50.97
2023-02-28T21:59:23.780Z,51.11
2023-02-28T22:01:51.919Z,51.03
2023-02-28T22:04:22.367Z,50.84
2023-02-28T22:06:51.189Z,50.90
2023-02-28T22:09:20.257Z,50.65
2023-02-28T22:11:48.109Z,51.15
2023-02-28T22:14:15.832Z,50.80
2023-02-28T22:16:54.580Z,51.00
2023-02-28T22:19:23.088Z,51.07
2023-02-28T22:21:51.558Z,50.99
2023-02-28T22:24:24.082Z,51.15
2023-02-28T22:26:51.968Z,50.78
2023-02-28T22:29:19.688Z,50.89
2023-02-28T22:31:47.504Z,51.16
2023-02-28T22:34:15.311Z,51.04
2023-02-28T22:36:43.116Z,51.22
2023-02-28T22:39:10.793Z,51.09
2023-02-28T22:41:39.866Z,51.05
2023-02-28T22:44:07.991Z,51.10
2023-02-28T22:46:36.133Z,51.03
2023-02-28T22:49:07.473Z,50.91
2023-02-28T22:51:35.337Z,51.09
2023-02-28T22:54:04.311Z,50.99
2023-02-28T22:56:32.461Z,51.78
2023-02-28T22:59:02.188Z,51.89
2023-02-28T23:01:30.940Z,51.60
2023-02-28T23:03:58.825Z,51.20
2023-02-28T23:06:27.790Z,51.05
2023-02-28T23:08:57.442Z,51.54
2023-02-28T23:11:25.990Z,51.27
2023-02-28T23:13:59.536Z,51.58
2023-02-28T23:16:30.549Z,51.21
2023-02-28T23:18:58.987Z,51.36
2023-02-28T23:21:26.885Z,51.51
2023-02-28T23:23:54.660Z,51.07
2023-02-28T23:26:22.343Z,51.40
2023-02-28T23:28:50.079Z,51.56
2023-02-28T23:31:17.953Z,51.66
2023-02-28T23:33:47.013Z,51.19
2023-02-28T23:36:15.434Z,51.62
2023-02-28T23:38:44.108Z,51.75
2023-02-28T23:41:12.143Z,51.55
2023-02-28T23:43:40.605Z,51.26
2023-02-28T23:46:08.787Z,51.22
2023-02-28T23:48:36.504Z,51.22
2023-02-28T23:51:08.394Z,51.71
2023-02-28T23:53:36.244Z,51.50
2023-02-28T23:56:04.320Z,51.62
2023-02-28T23:58:32.084Z,51.69
